Time;durP1;ratioP1;P1;durP2;ratioP2;P2;SDS_P1;SDS_P2;PMS_P1;PMS_P2;Temp;Humidity;BMP_temperature;BMP_pressure;BME280_temperature;BME280_humidity;BME280_pressure;Samples;Min_cycle;Max_cycle;Signal;HPM_P1;HPM_P2
2022/05/09 00:00:01;;;;;;;6.97;1.50;;;;;;;10.47;50.03;101701.00;4984438;28;20045;-75
2022/05/09 00:02:26;;;;;;;5.60;2.13;;;;;;;10.46;50.12;101705.41;4999888;28;20049;-75
2022/05/09 00:04:52;;;;;;;6.30;2.00;;;;;;;10.45;50.04;101702.72;5003388;28;20038;-75
2022/05/09 00:07:18;;;;;;;6.57;2.25;;;;;;;10.43;50.01;101707.13;5000272;28;20068;-75
2022/05/09 00:09:44;;;;;;;5.43;1.95;;;;;;;10.39;50.33;101702.66;4988656;28;20118;-74
2022/05/09 00:12:09;;;;;;;8.63;2.25;;;;;;;10.36;50.32;101700.88;5002106;28;20116;-74
2022/05/09 00:14:35;;;;;;;5.15;1.80;;;;;;;10.31;50.92;101703.44;5002064;28;20113;-74
2022/05/09 00:17:00;;;;;;;9.70;2.42;;;;;;;10.26;50.71;101706.84;5001276;28;20030;-74
2022/05/09 00:19:25;;;;;;;8.00;2.20;;;;;;;10.24;50.69;101704.22;5003321;28;20037;-75
2022/05/09 00:21:52;;;;;;;6.95;1.88;;;;;;;10.22;51.44;101707.69;4999617;28;20124;-74
2022/05/09 00:24:19;;;;;;;5.35;2.08;;;;;;;10.18;51.75;101709.38;5000464;28;20045;-74
2022/05/09 00:26:46;;;;;;;8.15;1.90;;;;;;;10.16;51.87;101710.22;5002118;28;20037;-74
2022/05/09 00:29:14;;;;;;;6.50;2.05;;;;;;;10.12;52.22;101716.34;5002118;28;20045;-74
2022/05/09 00:31:43;;;;;;;6.22;2.80;;;;;;;10.10;52.28;101711.91;5000171;28;20128;-75
2022/05/09 00:34:10;;;;;;;5.47;2.20;;;;;;;10.07;52.22;101713.63;4996623;28;20460;-74
2022/05/09 00:36:37;;;;;;;7.38;2.35;;;;;;;10.06;52.29;101717.09;5002397;28;20042;-74
2022/05/09 00:39:03;;;;;;;7.03;2.15;;;;;;;10.04;52.39;101718.84;5001692;28;20034;-74
2022/05/09 00:41:31;;;;;;;6.57;2.05;;;;;;;9.99;52.40;101713.50;5000629;28;20477;-74
2022/05/09 00:44:00;;;;;;;7.72;2.20;;;;;;;10.00;52.68;101725.81;5003261;28;20137;-74
2022/05/09 00:46:28;;;;;;;5.72;2.10;;;;;;;9.96;52.57;101721.38;5000602;28;20042;-75
2022/05/09 00:48:58;;;;;;;8.60;2.75;;;;;;;9.94;53.07;101724.84;5001758;28;20033;-75
2022/05/09 00:51:26;;;;;;;6.68;2.13;;;;;;;9.94;53.46;101724.84;4998950;28;20042;-75
2022/05/09 00:53:54;;;;;;;14.52;2.30;;;;;;;9.91;53.26;101720.41;5002992;28;20045;-75
2022/05/09 00:56:29;;;;;;;10.65;2.47;;;;;;;9.86;52.97;101722.09;5000742;28;20065;-75
2022/05/09 00:59:02;;;;;;;7.25;2.33;;;;;;;9.81;53.08;101722.00;5003743;28;20038;-74
2022/05/09 01:01:28;;;;;;;4.50;2.08;;;;;;;9.75;53.73;101721.94;4991835;28;20035;-75
2022/05/09 01:04:06;;;;;;;6.68;2.45;;;;;;;9.72;53.83;101720.97;5005840;28;20034;-75
2022/05/09 01:06:33;;;;;;;6.63;1.88;;;;;;;9.62;53.81;101717.31;5007072;28;20500;-75
2022/05/09 01:08:58;;;;;;;5.10;2.25;;;;;;;9.60;53.92;101721.66;4978798;28;20092;-74
2022/05/09 01:11:27;;;;;;;8.38;2.38;;;;;;;9.55;54.33;101726.84;5005781;28;20042;-75
2022/05/09 01:14:02;;;;;;;6.60;1.98;;;;;;;9.50;55.13;101725.00;5005490;28;20053;-75
2022/05/09 01:16:27;;;;;;;7.60;2.00;;;;;;;9.49;55.15;101723.25;5003568;28;20034;-75
2022/05/09 01:18:53;;;;;;;7.78;2.20;;;;;;;9.49;54.68;101720.59;5005998;28;20504;-75
2022/05/09 01:21:30;;;;;;;7.22;2.28;;;;;;;9.50;54.75;101723.25;5002554;28;20516;-75
2022/05/09 01:23:56;;;;;;;7.47;2.15;;;;;;;9.46;54.71;101710.91;5006582;28;20088;-75
2022/05/09 01:26:23;;;;;;;7.55;2.38;;;;;;;9.44;54.67;101713.50;5003577;28;20125;-75
2022/05/09 01:28:48;;;;;;;7.82;2.67;;;;;;;9.41;54.66;101717.84;4997385;28;20049;-75
2022/05/09 01:31:16;;;;;;;5.63;2.40;;;;;;;9.38;55.39;101716.03;5004371;28;20497;-74
2022/05/09 01:33:46;;;;;;;8.40;2.35;;;;;;;9.38;55.74;101717.78;5004103;28;20026;-75
2022/05/09 01:36:20;;;;;;;5.70;2.40;;;;;;;9.34;55.69;101715.94;5006492;28;20055;-75
2022/05/09 01:38:52;;;;;;;6.18;1.90;;;;;;;9.32;55.38;101717.66;5000166;28;20044;-75
2022/05/09 01:41:18;;;;;;;;;;;;;;;9.22;56.37;101713.97;5003452;28;20126;-74
2022/05/09 01:43:48;;;;;;;6.32;2.03;;;;;;;9.21;56.01;101710.44;4996383;28;19961;-74
2022/05/09 01:46:17;;;;;;;7.85;2.50;;;;;;;9.20;55.67;101713.06;4987497;28;20509;-75
2022/05/09 01:51:27;;;;;;;8.02;2.58;;;;;;;9.07;56.96;101722.47;4997090;28;20038;-75
2022/05/09 01:53:53;;;;;;;8.88;2.65;;;;;;;9.01;56.99;101722.34;4987773;28;20026;-75
2022/05/09 01:56:25;;;;;;;6.18;2.17;;;;;;;8.95;57.14;101727.50;5003238;28;20049;-74
2022/05/09 01:58:50;;;;;;;7.22;2.25;;;;;;;8.87;57.47;101721.19;4999648;28;20057;-75
2022/05/09 02:01:18;;;;;;;7.53;2.38;;;;;;;8.83;58.03;101727.25;5004690;28;20491;-75
2022/05/09 02:03:45;;;;;;;10.40;2.72;;;;;;;8.80;58.51;101727.19;5004283;28;20026;-74
2022/05/09 02:06:16;;;;;;;11.10;2.85;;;;;;;8.78;58.67;101725.44;5003006;28;20026;-74
2022/05/09 02:08:42;;;;;;;7.10;2.47;;;;;;;8.74;58.76;101726.22;4998456;28;20041;-75
2022/05/09 02:11:07;;;;;;;8.60;2.80;;;;;;;8.75;58.62;101725.38;4986818;28;20037;-74
2022/05/09 02:13:33;;;;;;;8.15;2.13;;;;;;;8.75;58.96;101730.63;5003962;28;20411;-75
2022/05/09 02:15:59;;;;;;;5.40;2.08;;;;;;;8.74;58.72;101726.22;5002760;28;20168;-75
2022/05/09 02:18:24;;;;;;;7.10;2.55;;;;;;;8.74;58.95;101734.09;5005067;28;20041;-74
2022/05/09 02:20:51;;;;;;;6.93;2.55;;;;;;;8.73;59.23;101723.56;5002064;28;20049;-75
2022/05/09 02:23:17;;;;;;;12.43;3.03;;;;;;;8.69;58.59;101722.59;4998510;28;20093;-74
2022/05/09 02:25:45;;;;;;;8.23;2.30;;;;;;;8.66;59.18;101727.78;5004745;28;20121;-75
2022/05/09 02:28:11;;;;;;;10.63;3.00;;;;;;;8.61;59.78;101729.44;5003935;28;20034;-75
2022/05/09 02:30:38;;;;;;;6.97;2.38;;;;;;;8.56;60.36;101723.19;5002876;28;20501;-74
2022/05/09 02:33:05;;;;;;;12.05;2.60;;;;;;;8.54;60.21;101733.72;5005048;28;20117;-74
2022/05/09 02:35:31;;;;;;;13.13;3.33;;;;;;;8.53;60.50;101728.41;4998536;28;20493;-75
2022/05/09 02:37:56;;;;;;;8.95;2.90;;;;;;;8.52;60.45;101731.91;5003754;28;20037;-75
2022/05/09 02:40:24;;;;;;;8.07;2.47;;;;;;;8.49;60.78;101726.56;5003074;28;20401;-74
2022/05/09 02:42:49;;;;;;;8.80;2.38;;;;;;;8.45;60.84;101740.50;4999774;28;20540;-75
2022/05/09 02:45:15;;;;;;;10.77;2.78;;;;;;;8.43;60.71;101736.94;5004589;28;20103;-75
2022/05/09 02:47:41;;;;;;;5.57;2.40;;;;;;;8.41;60.89;101738.66;5001670;28;20045;-74
2022/05/09 02:50:08;;;;;;;7.45;3.03;;;;;;;8.40;60.92;101742.16;4987188;28;20042;-74
2022/05/09 02:52:34;;;;;;;10.55;2.60;;;;;;;8.35;61.03;101745.50;4983584;28;20050;-75
2022/05/09 02:54:59;;;;;;;8.35;2.47;;;;;;;8.35;61.04;101740.25;5003146;28;20040;-74
2022/05/09 02:57:24;;;;;;;7.43;2.83;;;;;;;8.35;60.82;101742.88;5003676;28;20034;-74
2022/05/09 02:59:50;;;;;;;10.73;3.70;;;;;;;8.34;61.10;101735.84;5001969;28;20038;-74
2022/05/09 03:02:15;;;;;;;7.78;3.13;;;;;;;8.32;61.76;101744.56;5004377;28;20077;-74
2022/05/09 03:04:41;;;;;;;8.02;2.72;;;;;;;8.27;61.49;101740.94;5001607;28;20460;-74
2022/05/09 03:07:13;;;;;;;10.93;2.70;;;;;;;8.26;62.17;101742.69;4970009;28;20559;-74
2022/05/09 03:09:41;;;;;;;9.02;3.10;;;;;;;8.27;61.64;101738.31;5003804;28;20157;-75
2022/05/09 03:12:08;;;;;;;11.77;4.65;;;;;;;8.30;61.89;101743.63;5001068;28;20489;-75
2022/05/09 03:14:35;;;;;;;13.60;5.47;;;;;;;8.30;62.14;101744.53;5003804;28;20095;-74
2022/05/09 03:17:00;;;;;;;9.63;3.97;;;;;;;8.26;62.21;101750.59;5002056;28;20034;-75
2022/05/09 03:19:26;;;;;;;11.68;3.72;;;;;;;8.23;61.99;101745.25;4984078;28;20504;-74
2022/05/09 03:21:52;;;;;;;8.80;4.10;;;;;;;8.20;62.21;101749.53;4998948;28;20042;-74
2022/05/09 03:24:19;;;;;;;13.57;3.45;;;;;;;8.16;62.26;101753.84;5002254;28;20042;-74
2022/05/09 03:26:45;;;;;;;8.20;3.00;;;;;;;8.11;62.55;101753.75;5002354;28;20042;-75
2022/05/09 03:29:10;;;;;;;10.02;3.67;;;;;;;8.09;62.19;101760.69;5003692;28;20059;-75
2022/05/09 03:31:36;;;;;;;9.85;2.70;;;;;;;8.07;62.74;101758.91;4991882;28;20042;-75
2022/05/09 03:34:01;;;;;;;8.93;2.80;;;;;;;8.04;62.82;101758.81;5002436;28;20030;-75
2022/05/09 03:36:27;;;;;;;7.93;2.95;;;;;;;8.02;62.36;101750.91;5001731;28;20050;-75
2022/05/09 03:38:52;;;;;;;8.55;2.97;;;;;;;8.02;62.93;101760.53;5003668;28;20046;-75
2022/05/09 03:41:17;;;;;;;8.50;2.85;;;;;;;8.02;62.74;101761.44;4995085;28;20033;-75
2022/05/09 03:43:43;;;;;;;8.63;2.42;;;;;;;8.04;62.68;101756.19;4996821;28;20489;-75
2022/05/09 03:46:08;;;;;;;9.10;2.88;;;;;;;8.06;62.54;101755.38;4994473;28;20064;-75
2022/05/09 03:48:34;;;;;;;10.80;3.00;;;;;;;8.06;62.86;101765.00;5002201;28;20034;-75
2022/05/09 03:51:01;;;;;;;10.30;2.97;;;;;;;8.04;62.45;101756.19;5000250;28;20180;-75
2022/05/09 03:53:27;;;;;;;10.95;3.35;;;;;;;8.03;62.44;101759.69;5000023;28;20042;-75
2022/05/09 03:55:53;;;;;;;7.55;2.45;;;;;;;7.98;62.61;101759.56;4999522;28;20030;-75
2022/05/09 03:58:19;;;;;;;14.57;3.05;;;;;;;7.97;62.56;101763.06;5003345;28;20041;-75
2022/05/09 04:00:44;;;;;;;8.43;2.90;;;;;;;7.97;62.87;101772.69;5001171;28;20034;-75
2022/05/09 04:03:09;;;;;;;7.68;2.75;;;;;;;7.97;62.86;101757.78;5001992;28;20030;-75
2022/05/09 04:05:35;;;;;;;11.25;2.70;;;;;;;8.00;62.84;101770.13;4993601;28;20264;-75
2022/05/09 04:08:04;;;;;;;7.45;2.80;;;;;;;8.00;63.18;101768.38;4998709;28;20121;-75
2022/05/09 04:10:32;;;;;;;10.38;3.13;;;;;;;8.05;63.32;101765.88;4997783;28;20056;-75
2022/05/09 04:12:58;;;;;;;10.27;3.15;;;;;;;8.11;63.06;101766.00;4997774;28;20026;-75
2022/05/09 04:18:09;;;;;;;10.48;3.50;;;;;;;8.24;62.56;101770.69;4998247;28;20038;-75
2022/05/09 04:20:35;;;;;;;13.77;3.33;;;;;;;8.31;62.48;101764.72;4984300;28;20030;-75
2022/05/09 04:23:01;;;;;;;9.88;3.40;;;;;;;8.32;63.37;101771.75;4999294;28;20046;-75
2022/05/09 04:25:29;;;;;;;19.20;8.65;;;;;;;8.32;63.34;101766.50;4988309;28;20026;-75
2022/05/09 04:27:56;;;;;;;9.50;4.78;;;;;;;8.37;63.24;101773.63;4999345;28;20120;-75
2022/05/09 04:30:23;;;;;;;10.98;4.70;;;;;;;8.45;63.57;101767.69;5002299;28;20034;-75
2022/05/09 04:32:49;;;;;;;10.27;3.97;;;;;;;8.57;63.08;101772.34;4991090;28;20489;-75
2022/05/09 04:35:17;;;;;;;7.70;3.13;;;;;;;8.66;62.32;101763.75;4991669;28;20050;-75
2022/05/09 04:37:47;;;;;;;11.95;3.20;;;;;;;8.77;62.54;101771.00;4971090;28;20510;-75
2022/05/09 04:40:17;;;;;;;8.55;2.88;;;;;;;8.83;62.78;101777.25;4990938;28;20038;-75
2022/05/09 04:42:43;;;;;;;11.77;3.33;;;;;;;8.88;62.29;101776.53;4996764;28;20034;-75
2022/05/09 04:45:10;;;;;;;11.35;3.00;;;;;;;8.99;62.01;101771.47;5002124;28;20036;-75
2022/05/09 04:47:35;;;;;;;9.10;3.13;;;;;;;9.08;61.61;101768.13;4987739;28;20386;-75
2022/05/09 04:50:01;;;;;;;8.70;3.33;;;;;;;9.16;61.47;101762.16;4996832;28;20025;-76
2022/05/09 04:52:26;;;;;;;7.43;3.67;;;;;;;9.28;61.43;101768.53;4999403;28;20064;-75
2022/05/09 04:54:52;;;;;;;11.98;4.20;;;;;;;9.39;61.66;101774.88;5000752;28;20113;-75
2022/05/09 04:57:18;;;;;;;8.27;3.33;;;;;;;9.47;61.25;101770.63;4992300;28;20046;-76
2022/05/09 04:59:43;;;;;;;11.43;4.28;;;;;;;9.50;61.32;101772.44;4997366;28;20030;-75
2022/05/09 05:02:08;;;;;;;14.13;3.70;;;;;;;9.59;61.42;101775.25;4998820;28;20045;-76
2022/05/09 05:04:34;;;;;;;8.55;3.22;;;;;;;9.64;60.74;101771.84;5000216;28;20126;-76
2022/05/09 05:06:59;;;;;;;14.43;2.97;;;;;;;9.75;60.67;101773.78;4974989;28;20122;-76
2022/05/09 05:09:25;;;;;;;10.73;3.58;;;;;;;9.82;60.62;101781.81;5001713;28;20116;-76
2022/05/09 05:11:50;;;;;;;12.75;3.88;;;;;;;9.91;60.85;101778.44;5000597;28;20076;-76
2022/05/09 05:14:16;;;;;;;10.38;3.38;;;;;;;10.01;60.55;101780.34;4980005;28;20125;-76
2022/05/09 05:17:00;;;;;;;10.23;3.22;;;;;;;10.12;60.27;101788.44;4976950;28;20034;-76
2022/05/09 05:19:33;;;;;;;12.18;3.33;;;;;;;10.25;60.38;101789.53;4998342;28;20026;-75
2022/05/09 05:22:01;;;;;;;8.10;3.20;;;;;;;10.33;59.89;101787.91;4994831;28;20038;-76
2022/05/09 05:24:27;;;;;;;12.35;3.45;;;;;;;10.40;59.97;101795.06;4999486;28;20081;-76
2022/05/09 05:26:54;;;;;;;10.10;3.08;;;;;;;10.46;59.45;101795.16;5001214;28;20034;-76
2022/05/09 05:29:21;;;;;;;10.18;3.47;;;;;;;10.52;59.84;101795.22;4998621;28;20497;-75
2022/05/09 05:31:48;;;;;;;9.82;3.33;;;;;;;10.62;59.46;101801.53;4995235;28;20093;-76
2022/05/09 05:34:13;;;;;;;10.88;4.63;;;;;;;10.71;59.74;101800.75;4997020;28;20045;-76
2022/05/09 05:36:39;;;;;;;13.55;4.45;;;;;;;10.80;59.75;101808.81;4996763;28;20038;-76
2022/05/09 05:39:04;;;;;;;12.10;4.85;;;;;;;10.89;59.77;101806.28;4991714;28;20041;-76
2022/05/09 05:41:32;;;;;;;10.65;4.05;;;;;;;10.95;59.24;101801.09;4990901;28;20092;-76
2022/05/09 05:43:57;;;;;;;11.00;3.38;;;;;;;11.04;59.27;101802.97;4999707;28;20043;-76
2022/05/09 05:46:23;;;;;;;7.90;3.13;;;;;;;11.15;58.99;101803.09;5005702;28;20045;-76
2022/05/09 05:48:49;;;;;;;13.00;5.13;;;;;;;11.27;58.86;101799.72;5001750;28;20042;-76
2022/05/09 05:51:14;;;;;;;10.85;4.18;;;;;;;11.38;58.28;101795.41;5005053;28;20098;-75
2022/05/09 05:53:40;;;;;;;11.52;4.90;;;;;;;11.52;58.12;101798.19;5003961;28;20093;-76
2022/05/09 05:56:06;;;;;;;13.40;6.05;;;;;;;11.64;58.23;101798.31;5002552;28;20042;-76
2022/05/09 05:58:31;;;;;;;13.05;5.20;;;;;;;11.74;58.15;101794.91;5004158;28;20038;-76
2022/05/09 06:00:56;;;;;;;12.60;4.70;;;;;;;11.87;58.28;101793.28;5001064;28;20037;-76
2022/05/09 06:03:22;;;;;;;10.55;4.47;;;;;;;11.99;57.17;101790.72;5006276;28;20378;-76
2022/05/09 06:05:48;;;;;;;12.98;5.10;;;;;;;12.10;57.06;101798.75;5003628;28;20073;-76
2022/05/09 06:08:14;;;;;;;12.07;5.00;;;;;;;12.19;56.78;101801.47;5007861;28;20034;-76
2022/05/09 06:10:40;;;;;;;14.90;4.88;;;;;;;12.30;56.87;101805.97;4999273;28;20417;-76
2022/05/09 06:13:06;;;;;;;12.63;6.90;;;;;;;12.41;56.53;101814.84;5003677;28;20671;-76
2022/05/09 06:15:32;;;;;;;16.98;7.55;;;;;;;12.55;56.56;101807.00;5000703;28;20095;-76
2022/05/09 06:18:00;;;;;;;16.27;6.88;;;;;;;12.71;56.37;101808.88;4996326;28;20030;-76
2022/05/09 06:20:28;;;;;;;14.80;6.32;;;;;;;12.84;55.65;101809.84;5002308;28;20485;-76
2022/05/09 06:22:54;;;;;;;18.73;7.60;;;;;;;12.95;55.66;101805.47;4981282;28;20034;-76
2022/05/09 06:25:20;;;;;;;14.00;6.63;;;;;;;13.10;55.49;101807.31;5002942;28;20096;-76
2022/05/09 06:27:47;;;;;;;13.10;5.50;;;;;;;13.22;55.04;101809.97;5005209;28;20049;-76
2022/05/09 06:30:14;;;;;;;11.70;5.35;;;;;;;13.35;54.15;101802.97;4993736;28;20096;-76
2022/05/09 06:32:39;;;;;;;10.25;4.78;;;;;;;13.44;54.05;101803.00;5001448;28;20042;-76
2022/05/09 06:35:07;;;;;;;12.18;5.10;;;;;;;13.52;53.32;101806.56;5004341;28;20042;-76
2022/05/09 06:37:34;;;;;;;9.40;4.45;;;;;;;13.59;53.12;101803.03;5002602;28;20409;-76
2022/05/09 06:40:01;;;;;;;13.10;4.63;;;;;;;13.68;53.24;101810.13;5005107;28;20045;-76
2022/05/09 06:42:27;;;;;;;7.85;3.25;;;;;;;13.67;52.71;101812.75;4998065;28;20034;-76
2022/05/09 06:44:53;;;;;;;7.40;3.13;;;;;;;13.68;52.23;101806.59;5001959;28;20172;-76
2022/05/09 06:47:19;;;;;;;8.60;3.50;;;;;;;13.77;51.88;101806.59;4994136;28;20112;-76
2022/05/09 06:49:44;;;;;;;12.60;4.72;;;;;;;13.86;52.48;101806.63;5004800;28;20038;-76
2022/05/09 06:52:09;;;;;;;11.13;3.92;;;;;;;13.96;51.85;101802.16;5000716;28;20041;-76
2022/05/09 06:54:35;;;;;;;11.30;3.60;;;;;;;13.98;51.30;101811.91;5003700;28;20048;-76
2022/05/09 06:57:00;;;;;;;12.57;5.13;;;;;;;14.09;51.39;101808.38;5001010;28;20050;-76
2022/05/09 06:59:25;;;;;;;12.73;4.57;;;;;;;14.18;51.16;101811.03;5003991;28;20061;-76
2022/05/09 07:01:51;;;;;;;13.02;3.50;;;;;;;14.22;50.92;101816.31;5002316;28;20038;-76
2022/05/09 07:04:17;;;;;;;11.07;3.97;;;;;;;14.35;50.60;101806.56;4985483;28;20067;-76
2022/05/09 07:06:42;;;;;;;13.45;4.25;;;;;;;14.45;50.15;101812.75;5003840;28;20128;-76
2022/05/09 07:09:10;;;;;;;12.27;3.55;;;;;;;14.50;49.72;101807.44;5000141;28;20113;-76
2022/05/09 07:11:36;;;;;;;13.77;5.65;;;;;;;14.56;49.46;101807.47;4999312;28;20460;-76
2022/05/09 07:14:02;;;;;;;9.93;4.60;;;;;;;14.70;49.87;101813.63;5003636;28;20034;-76
2022/05/09 07:16:27;;;;;;;13.73;4.65;;;;;;;14.77;49.37;101802.06;5001660;28;20116;-76
2022/05/09 07:18:52;;;;;;;10.90;3.92;;;;;;;14.76;49.07;101802.09;5001738;28;20030;-76
2022/05/09 07:21:19;;;;;;;14.93;7.32;;;;;;;14.87;49.17;101797.63;5000008;28;20385;-76
2022/05/09 07:23:44;;;;;;;12.23;5.82;;;;;;;15.04;48.54;101806.44;4989074;28;20113;-76
2022/05/09 07:26:09;;;;;;;7.75;3.80;;;;;;;15.18;48.38;101806.34;5003922;28;20113;-76
2022/05/09 07:28:35;;;;;;;17.17;4.00;;;;;;;15.28;48.67;101805.41;5000427;28;20709;-77
2022/05/09 07:31:01;;;;;;;14.15;4.05;;;;;;;15.43;47.87;101806.22;5000579;28;20081;-76
2022/05/09 07:33:28;;;;;;;10.20;4.63;;;;;;;15.53;48.04;101810.59;4997446;28;20027;-76
2022/05/09 07:35:53;;;;;;;15.43;5.47;;;;;;;15.66;47.95;101798.97;4998531;28;20121;-76
2022/05/09 07:38:20;;;;;;;15.23;4.15;;;;;;;15.81;47.28;101802.47;5000603;28;20424;-76
2022/05/09 07:40:46;;;;;;;9.60;4.07;;;;;;;15.90;46.97;101807.69;5000756;28;20042;-76
2022/05/09 07:43:17;;;;;;;14.88;5.55;;;;;;;16.03;47.34;101808.47;5001657;28;20493;-76
2022/05/09 07:45:43;;;;;;;11.18;5.07;;;;;;;16.11;47.31;101806.63;5002708;28;20413;-76
2022/05/09 07:48:10;;;;;;;11.18;5.32;;;;;;;16.16;47.15;101800.38;5000915;28;20077;-76
2022/05/09 07:50:36;;;;;;;12.75;5.70;;;;;;;16.20;47.05;101801.25;5003633;28;20103;-76
2022/05/09 07:53:10;;;;;;;10.98;5.03;;;;;;;16.21;46.67;101793.22;4998991;28;20034;-76
2022/05/09 07:55:37;;;;;;;15.25;6.07;;;;;;;16.27;46.88;101800.28;4995846;28;20088;-76
2022/05/09 07:58:03;;;;;;;11.50;5.68;;;;;;;16.43;46.75;101804.56;5003285;28;20500;-76
2022/05/09 08:00:29;;;;;;;14.40;6.05;;;;;;;16.60;46.51;101801.72;4999814;28;20120;-76
2022/05/09 08:02:54;;;;;;;12.07;6.68;;;;;;;16.76;46.46;101798.88;4995974;28;20034;-75
2022/05/09 08:05:19;;;;;;;11.98;6.15;;;;;;;16.90;45.92;101796.06;5002619;28;20034;-76
2022/05/09 08:07:45;;;;;;;13.65;5.78;;;;;;;16.91;45.54;101796.06;5001053;28;20037;-76
2022/05/09 08:10:11;;;;;;;13.32;4.05;;;;;;;16.95;45.47;101794.22;4997756;28;20463;-77
2022/05/09 08:12:38;;;;;;;12.02;3.30;;;;;;;16.87;44.69;101789.00;4998560;28;20101;-76
2022/05/09 08:15:05;;;;;;;10.05;4.40;;;;;;;16.92;45.66;101789.81;5002089;28;20118;-76
2022/05/09 08:17:32;;;;;;;9.70;5.28;;;;;;;17.05;45.18;101787.88;4996610;28;20496;-76
2022/05/09 08:19:58;;;;;;;11.48;4.00;;;;;;;17.17;45.30;101782.41;4997073;28;20117;-78
2022/05/09 08:22:28;;;;;;;13.00;6.13;;;;;;;17.32;44.92;101789.31;5001080;28;20116;-77
2022/05/09 08:24:56;;;;;;;9.90;3.85;;;;;;;17.47;44.56;101785.53;5003521;28;20026;-76
2022/05/09 08:27:23;;;;;;;10.43;3.90;;;;;;;17.48;44.33;101787.31;4972150;28;20030;-76
2022/05/09 08:29:51;;;;;;;9.90;2.80;;;;;;;17.55;44.21;101786.28;4999263;28;20500;-77
2022/05/09 08:32:16;;;;;;;10.90;4.28;;;;;;;17.65;44.06;101790.59;4995855;28;20048;-77
2022/05/09 08:34:42;;;;;;;8.35;3.60;;;;;;;17.73;43.87;101779.78;4999918;28;20038;-76
2022/05/09 08:37:07;;;;;;;9.68;4.32;;;;;;;17.84;43.07;101784.97;5003024;28;20042;-76
2022/05/09 08:39:32;;;;;;;7.43;3.28;;;;;;;17.91;41.55;101776.84;4964969;28;20038;-77
2022/05/09 08:42:05;;;;;;;10.20;4.90;;;;;;;17.89;40.94;101777.78;4997865;28;20034;-76
2022/05/09 08:44:51;;;;;;;9.80;4.43;;;;;;;18.08;41.29;101773.91;5001058;28;20100;-77
2022/05/09 08:47:52;;;;;;;13.38;5.10;;;;;;;18.37;40.62;101777.84;5001915;28;20034;-77
2022/05/09 08:50:24;;;;;;;12.57;4.25;;;;;;;18.50;40.31;101781.16;4985322;28;20510;-77
2022/05/09 08:52:59;;;;;;;11.63;4.90;;;;;;;18.70;40.74;101780.75;4997907;28;20034;-77
2022/05/09 08:55:28;;;;;;;8.95;4.03;;;;;;;18.94;39.17;101782.06;5000245;28;20031;-77
2022/05/09 08:58:02;;;;;;;8.73;3.00;;;;;;;19.05;36.70;101780.06;4970874;28;20034;-77
2022/05/09 09:00:29;;;;;;;9.02;3.80;;;;;;;19.09;37.49;101776.41;5001818;28;20508;-76
2022/05/09 09:03:00;;;;;;;10.98;3.17;;;;;;;19.26;37.18;101778.72;5001707;28;20408;-77
2022/05/09 09:05:32;;;;;;;7.72;2.85;;;;;;;19.26;35.75;101774.25;4996122;28;20420;-77
2022/05/09 09:08:37;;;;;;;6.38;2.60;;;;;;;19.23;34.90;101774.31;4984013;28;20041;-76
2022/05/09 09:11:30;;;;;;;7.57;3.10;;;;;;;19.45;35.45;101771.16;5002431;28;20392;-76
2022/05/09 09:14:14;;;;;;;11.15;4.00;;;;;;;19.66;36.17;101777.78;4996580;28;20043;-77
2022/05/09 09:16:55;;;;;;;7.93;3.28;;;;;;;19.89;35.40;101777.25;4995392;28;20053;-77
2022/05/09 09:19:29;;;;;;;10.07;3.30;;;;;;;20.07;35.50;101771.44;5001637;28;20064;-76
2022/05/09 09:22:13;;;;;;;12.27;4.10;;;;;;;20.17;35.87;101768.50;4974707;28;20064;-76
2022/05/09 09:24:55;;;;;;;7.70;2.50;;;;;;;20.28;34.68;101771.78;5003262;28;20042;-76
2022/05/09 09:27:40;;;;;;;9.85;2.90;;;;;;;20.23;33.82;101769.22;4999629;28;20044;-77
2022/05/09 09:30:11;;;;;;;11.07;3.35;;;;;;;20.29;34.76;101771.72;5002309;28;20124;-77
2022/05/09 09:32:42;;;;;;;7.03;2.60;;;;;;;20.25;34.40;101766.50;5004717;28;20501;-76
2022/05/09 09:35:08;;;;;;;7.03;2.58;;;;;;;20.25;34.72;101763.81;4995487;28;20038;-77
2022/05/09 09:37:49;;;;;;;9.20;2.50;;;;;;;20.23;34.00;101758.50;5004812;28;20025;-76
2022/05/09 09:40:15;;;;;;;9.30;2.70;;;;;;;20.44;34.23;101769.56;4999903;28;20038;-77
2022/05/09 09:42:40;;;;;;;8.05;3.40;;;;;;;20.65;33.18;101757.41;5005229;28;20117;-77
2022/05/09 09:45:19;;;;;;;8.80;3.88;;;;;;;20.84;33.39;101758.59;5004607;28;20034;-77
2022/05/09 09:47:45;;;;;;;8.50;2.90;;;;;;;21.02;32.56;101754.50;4999767;28;20096;-76
2022/05/09 09:50:13;;;;;;;7.05;2.83;;;;;;;21.16;32.26;101757.63;5006495;28;20117;-76
2022/05/09 09:52:47;;;;;;;11.70;4.25;;;;;;;21.27;32.39;101756.41;5003521;28;20033;-76
2022/05/09 09:55:25;;;;;;;6.28;2.53;;;;;;;21.24;30.55;101752.03;4982357;28;20034;-76
2022/05/09 09:57:50;;;;;;;14.07;3.80;;;;;;;21.42;31.95;101748.78;4986622;28;20035;-77
2022/05/09 10:00:37;;;;;;;14.25;5.32;;;;;;;21.61;31.28;101750.88;4989288;28;20041;-76
2022/05/09 10:03:27;;;;;;;6.53;2.60;;;;;;;21.59;30.80;101742.00;5005685;28;20027;-76
2022/05/09 10:05:54;;;;;;;10.38;3.65;;;;;;;21.56;30.81;101739.41;4980581;28;20092;-76
2022/05/09 10:08:30;;;;;;;8.70;3.53;;;;;;;21.69;31.21;101746.13;5002837;28;20034;-76
2022/05/09 10:11:12;;;;;;;7.32;3.08;;;;;;;21.85;31.16;101743.81;5009729;28;20049;-76
2022/05/09 10:13:45;;;;;;;;;;;;;;;21.94;31.17;101740.81;4997406;28;20049;-77
2022/05/09 10:16:33;;;;;;;9.85;4.07;;;;;;;22.07;30.82;101742.13;5002866;28;19921;-77
2022/05/09 10:19:00;;;;;;;7.38;2.90;;;;;;;22.13;30.13;101741.03;4981828;28;20125;-77
2022/05/09 10:24:49;;;;;;;7.25;2.95;;;;;;;22.22;29.79;101727.31;4999230;28;20057;-77
2022/05/09 10:27:41;;;;;;;11.32;6.47;;;;;;;22.19;29.46;101726.53;5006242;28;20038;-77
2022/05/09 10:30:22;;;;;;;11.48;4.40;;;;;;;22.29;30.95;101720.75;4998974;28;20464;-77
2022/05/09 10:32:59;;;;;;;7.35;3.67;;;;;;;22.50;29.84;101723.59;5002226;28;20034;-77
2022/05/09 10:35:26;;;;;;;10.73;3.38;;;;;;;22.52;29.68;101729.81;5000954;28;20533;-77
2022/05/09 10:37:57;;;;;;;11.48;2.88;;;;;;;22.64;29.79;101721.31;5003021;28;20041;-77
2022/05/09 10:40:30;;;;;;;9.07;3.40;;;;;;;22.78;30.06;101706.44;5005316;28;20045;-76
2022/05/09 10:43:02;;;;;;;7.53;2.80;;;;;;;22.81;29.57;101707.19;4999906;28;20045;-78
2022/05/09 10:45:32;;;;;;;7.63;2.70;;;;;;;22.87;28.92;101711.44;4984893;28;20072;-77
2022/05/09 10:48:10;;;;;;;7.72;2.25;;;;;;;22.60;27.51;101703.50;4992919;28;20497;-76
2022/05/09 10:51:10;;;;;;;7.53;2.90;;;;;;;22.62;28.20;101696.25;5002457;28;20045;-76
2022/05/09 10:53:43;;;;;;;17.58;5.68;;;;;;;22.83;29.64;101699.06;4999196;28;20058;-77
2022/05/09 10:56:18;;;;;;;12.75;5.32;;;;;;;23.07;29.18;101690.03;5003678;28;20033;-77
2022/05/09 10:58:53;;;;;;;13.48;4.65;;;;;;;23.24;29.54;101684.00;5005378;28;20124;-77
2022/05/09 11:01:25;;;;;;;13.27;5.15;;;;;;;23.41;28.82;101691.38;4999933;28;20129;-77
2022/05/09 11:03:53;;;;;;;9.40;4.28;;;;;;;23.57;28.35;101686.22;4983092;28;20096;-77
2022/05/09 11:06:28;;;;;;;10.82;3.70;;;;;;;23.67;26.96;101682.19;4997910;28;20507;-77
2022/05/09 11:09:24;;;;;;;9.50;3.17;;;;;;;23.62;26.73;101674.28;5003025;28;20052;-77
2022/05/09 11:12:05;;;;;;;9.02;3.80;;;;;;;23.57;27.57;101681.69;5003820;28;20109;-77
2022/05/09 11:14:45;;;;;;;15.82;3.30;;;;;;;23.43;26.74;101678.72;5001399;28;20035;-77
2022/05/09 11:17:38;;;;;;;7.97;2.33;;;;;;;23.39;25.13;101667.16;4989823;28;20482;-77
2022/05/09 11:20:29;;;;;;;7.80;2.90;;;;;;;23.47;26.39;101674.06;4985891;28;20026;-77
2022/05/09 11:23:32;;;;;;;6.60;2.13;;;;;;;23.49;24.66;101659.59;4991932;28;20034;-77
2022/05/09 11:26:12;;;;;;;7.72;2.80;;;;;;;23.43;25.27;101665.25;4970051;28;20500;-76
2022/05/09 11:28:54;;;;;;;7.80;2.17;;;;;;;23.54;25.06;101654.00;4988106;28;20039;-77
2022/05/09 11:31:43;;;;;;;6.80;2.42;;;;;;;23.62;25.35;101652.72;4991270;28;20059;-77
2022/05/09 11:34:21;;;;;;;11.45;3.67;;;;;;;23.94;24.88;101653.19;4995652;28;20040;-77
2022/05/09 11:37:08;;;;;;;7.15;2.40;;;;;;;24.09;23.07;101651.63;4975531;28;20058;-77
2022/05/09 11:39:58;;;;;;;8.50;3.35;;;;;;;24.44;24.36;101639.28;5002593;28;20038;-77
2022/05/09 11:45:58;;;;;;;11.23;3.38;;;;;;;25.34;24.29;101638.56;4989734;28;20045;-77